LW4 YBAF-YROM
Flight info
| Callsign | LW4 |
|---|---|
| Flight time | N/A |
| Altitude | 18000 |
| Route | DULIN W270 OK W369 ROM |
| Aircraft | B58T/L-SDFGRY/C |
Departure
| Time | 2026-04-13 10:04 |
|---|---|
| Airport | Brisbane Archerfield Airport (YBAF) |
Arrival
| Time | N/A |
|---|---|
| Airport | Roma Airport (YROM) |
| Time | Latitude | Longitude | Altitude | Speed | Heading |
|---|---|---|---|---|---|
| 2026-04-13 09:58 | -27.57028 | 152.99697 | 42 ft | 0 kts | 108° |
| 2026-04-13 09:59 | -27.56961 | 152.99706 | 42 ft | 0 kts | 202° |
| 2026-04-13 10:01 | -27.57081 | 153.00210 | 40 ft | 378 kts | 105° |
| 2026-04-13 10:02 | -27.57456 | 153.01332 | 35 ft | 0 kts | 191° |
| 2026-04-13 10:03 | -27.57459 | 153.01331 | 35 ft | 4 kts | 191° |
| 2026-04-13 10:03 | -27.57476 | 153.01206 | 34 ft | 0 kts | 220° |
| 2026-04-13 10:03 | -27.57412 | 153.01096 | 33 ft | 40 kts | 292° |
| 2026-04-13 10:03 | -27.57272 | 153.00525 | 51 ft | 104 kts | 286° |
| 2026-04-13 10:04 | -27.57035 | 152.99646 | 270 ft | 125 kts | 289° |
| 2026-04-13 10:04 | -27.56724 | 152.98705 | 541 ft | 131 kts | 293° |
| 2026-04-13 10:04 | -27.56411 | 152.97719 | 811 ft | 136 kts | 291° |
| 2026-04-13 10:04 | -27.56088 | 152.96707 | 1148 ft | 139 kts | 292° |
| 2026-04-13 10:05 | -27.55750 | 152.95675 | 1498 ft | 142 kts | 292° |
| 2026-04-13 10:05 | -27.55414 | 152.94614 | 1848 ft | 146 kts | 289° |
| 2026-04-13 10:05 | -27.55533 | 152.93498 | 2159 ft | 148 kts | 233° |
| 2026-04-13 10:05 | -27.56350 | 152.92875 | 2501 ft | 142 kts | 199° |
| 2026-04-13 10:06 | -27.57190 | 152.92282 | 2856 ft | 144 kts | 223° |
| 2026-04-13 10:06 | -27.57737 | 152.91349 | 3203 ft | 143 kts | 242° |
| 2026-04-13 10:06 | -27.58179 | 152.90363 | 3561 ft | 140 kts | 245° |
| 2026-04-13 10:06 | -27.58604 | 152.89391 | 3929 ft | 137 kts | 245° |
| 2026-04-13 10:07 | -27.59020 | 152.88436 | 4283 ft | 134 kts | 245° |
| 2026-04-13 10:07 | -27.59428 | 152.87502 | 4633 ft | 131 kts | 245° |
| 2026-04-13 10:07 | -27.59823 | 152.86596 | 4974 ft | 130 kts | 245° |
| 2026-04-13 10:07 | -27.60225 | 152.85674 | 5323 ft | 129 kts | 244° |
| 2026-04-13 10:08 | -27.60620 | 152.84768 | 5666 ft | 129 kts | 244° |
| 2026-04-13 10:08 | -27.61014 | 152.83866 | 6009 ft | 128 kts | 244° |
| 2026-04-13 10:08 | -27.61407 | 152.82968 | 6346 ft | 127 kts | 244° |
| 2026-04-13 10:08 | -27.61799 | 152.82074 | 6681 ft | 128 kts | 243° |
| 2026-04-13 10:09 | -27.62197 | 152.81175 | 6983 ft | 129 kts | 243° |
| 2026-04-13 10:09 | -27.62598 | 152.80272 | 7297 ft | 129 kts | 243° |
| 2026-04-13 10:09 | -27.63000 | 152.79368 | 7628 ft | 129 kts | 243° |
| 2026-04-13 10:09 | -27.63405 | 152.78463 | 7950 ft | 130 kts | 243° |
| 2026-04-13 10:10 | -27.63813 | 152.77557 | 8270 ft | 130 kts | 243° |
| 2026-04-13 10:10 | -27.64221 | 152.76649 | 8608 ft | 130 kts | 243° |
| 2026-04-13 10:10 | -27.64631 | 152.75743 | 8933 ft | 130 kts | 243° |
| 2026-04-13 10:10 | -27.65044 | 152.74835 | 9269 ft | 130 kts | 243° |
| 2026-04-13 10:11 | -27.65453 | 152.73941 | 9603 ft | 130 kts | 242° |
| 2026-04-13 10:11 | -27.65867 | 152.73034 | 9939 ft | 131 kts | 242° |
| 2026-04-13 10:11 | -27.66286 | 152.72124 | 10251 ft | 131 kts | 242° |
| 2026-04-13 10:11 | -27.66705 | 152.71214 | 10554 ft | 131 kts | 242° |
| 2026-04-13 10:12 | -27.67124 | 152.70305 | 10856 ft | 131 kts | 242° |
| 2026-04-13 10:12 | -27.67544 | 152.69397 | 11165 ft | 131 kts | 242° |
| 2026-04-13 10:12 | -27.67781 | 152.68422 | 11456 ft | 135 kts | 276° |
| 2026-04-13 10:12 | -27.67455 | 152.67421 | 11766 ft | 137 kts | 287° |
| 2026-04-13 10:13 | -27.67123 | 152.66421 | 12077 ft | 136 kts | 283° |
| 2026-04-13 10:13 | -27.66827 | 152.65410 | 12394 ft | 136 kts | 282° |
| 2026-04-13 10:13 | -27.66536 | 152.64396 | 12710 ft | 136 kts | 282° |
| 2026-04-13 10:13 | -27.66243 | 152.63379 | 13024 ft | 136 kts | 282° |
| 2026-04-13 10:14 | -27.65950 | 152.62362 | 13350 ft | 137 kts | 282° |
| 2026-04-13 10:14 | -27.65655 | 152.61342 | 13671 ft | 137 kts | 282° |
| 2026-04-13 10:14 | -27.65361 | 152.60322 | 13985 ft | 137 kts | 282° |
| 2026-04-13 10:14 | -27.65065 | 152.59302 | 14273 ft | 137 kts | 282° |
| 2026-04-13 10:15 | -27.64769 | 152.58282 | 14564 ft | 137 kts | 282° |
| 2026-04-13 10:15 | -27.64474 | 152.57260 | 14857 ft | 137 kts | 282° |
| 2026-04-13 10:15 | -27.64181 | 152.56253 | 15149 ft | 137 kts | 282° |
| 2026-04-13 10:15 | -27.63885 | 152.55234 | 15448 ft | 137 kts | 281° |
| 2026-04-13 10:16 | -27.63590 | 152.54216 | 15749 ft | 137 kts | 281° |
| 2026-04-13 10:16 | -27.63295 | 152.53199 | 16055 ft | 136 kts | 281° |
| 2026-04-13 10:16 | -27.63000 | 152.52182 | 16355 ft | 136 kts | 281° |
| 2026-04-13 10:16 | -27.62705 | 152.51163 | 16659 ft | 137 kts | 281° |
| 2026-04-13 10:17 | -27.62408 | 152.50141 | 16959 ft | 137 kts | 282° |
| 2026-04-13 10:17 | -27.62110 | 152.49117 | 17267 ft | 138 kts | 282° |
| 2026-04-13 10:17 | -27.61812 | 152.48090 | 17581 ft | 138 kts | 282° |
| 2026-04-13 10:17 | -27.61513 | 152.47061 | 17898 ft | 138 kts | 282° |
| 2026-04-13 10:18 | -27.61211 | 152.46021 | 18118 ft | 146 kts | 282° |
| 2026-04-13 10:18 | -27.60881 | 152.44871 | 18135 ft | 162 kts | 283° |
| 2026-04-13 10:18 | -27.60515 | 152.43614 | 18136 ft | 174 kts | 283° |
| 2026-04-13 10:18 | -27.60126 | 152.42289 | 18137 ft | 182 kts | 283° |
| 2026-04-13 10:19 | -27.59723 | 152.40913 | 18139 ft | 187 kts | 283° |
| 2026-04-13 10:19 | -27.59312 | 152.39506 | 18140 ft | 191 kts | 283° |
| 2026-04-13 10:19 | -27.58896 | 152.38074 | 18140 ft | 193 kts | 283° |
| 2026-04-13 10:19 | -27.58475 | 152.36628 | 18143 ft | 195 kts | 283° |
| 2026-04-13 10:20 | -27.58050 | 152.35174 | 18143 ft | 196 kts | 283° |
| 2026-04-13 10:20 | -27.57623 | 152.33714 | 18147 ft | 196 kts | 283° |
| 2026-04-13 10:20 | -27.57195 | 152.32249 | 18149 ft | 197 kts | 283° |
| 2026-04-13 10:20 | -27.56767 | 152.30783 | 18148 ft | 197 kts | 283° |
| 2026-04-13 10:21 | -27.56340 | 152.29317 | 18149 ft | 197 kts | 283° |
| 2026-04-13 10:21 | -27.55910 | 152.27848 | 18152 ft | 197 kts | 283° |
| 2026-04-13 10:21 | -27.55480 | 152.26380 | 18152 ft | 197 kts | 283° |
| 2026-04-13 10:21 | -27.55050 | 152.24911 | 18152 ft | 197 kts | 283° |
| 2026-04-13 10:22 | -27.54621 | 152.23442 | 18156 ft | 198 kts | 283° |
| 2026-04-13 10:22 | -27.54190 | 152.21971 | 18156 ft | 198 kts | 283° |
| 2026-04-13 10:22 | -27.53759 | 152.20501 | 18156 ft | 198 kts | 283° |
| 2026-04-13 10:22 | -27.53327 | 152.19029 | 18154 ft | 198 kts | 283° |
| 2026-04-13 10:23 | -27.52889 | 152.17557 | 18151 ft | 198 kts | 284° |
| 2026-04-13 10:23 | -27.52461 | 152.16081 | 18149 ft | 198 kts | 283° |
| 2026-04-13 10:23 | -27.52035 | 152.14601 | 18149 ft | 199 kts | 283° |
| 2026-04-13 10:23 | -27.51603 | 152.13122 | 18150 ft | 199 kts | 284° |
| 2026-04-13 10:24 | -27.51166 | 152.11646 | 18152 ft | 199 kts | 284° |
| 2026-04-13 10:24 | -27.50730 | 152.10168 | 18153 ft | 199 kts | 284° |
| 2026-04-13 10:24 | -27.50296 | 152.08689 | 18153 ft | 199 kts | 284° |
| 2026-04-13 10:24 | -27.49863 | 152.07212 | 18153 ft | 199 kts | 284° |
| 2026-04-13 10:25 | -27.49428 | 152.05735 | 18152 ft | 199 kts | 284° |